Tappen, North Dakota
Current Conditions -  °F | °C
As of 12:56 PM on Friday 24 Oct 2014 (Local Time) from KJMS Reporting Station
Clear Clear  
Wind Chill: 71°   Ceiling: Unl
Heat Index: 71°   Visibility: 10mi
Dew Point: 41°   Wind: 12mph
Humidity: 34%   Direction: 300°WNW
Pressure: 29.84"   Gusts: NA
Location:  46.87°N, 99.64°W
Report Text: KJMS 241756Z AUTO 30010KT 10SM CLR 22/05 A2984 RMK AO2 SLP104 T02170050 10217 20033 51005
Loading
Personal Weather Stations






























Interactive Weather Map
Tropical Storm Tracking
New forecast layout! Learn more

10-Day Weather Forecast

Advertisements
Track Severe Weather on mobile